Alden, Iowa
Current Conditions -  °F | °C
As of 8:55 AM on Thursday 30 Oct 2014 (Local Time) from KIFA Reporting Station
Overcast Overcast  
Wind Chill:   Ceiling: 8000
Heat Index:   Visibility: 10mi
Dew Point:   Wind: 3mph
Humidity: 88%   Direction: 110°ESE
Pressure: 30.04"   Gusts: NA
Location:  42.52°N, 93.38°W
Report Text: KIFA 301355Z AUTO 11003KT 10SM OVC080 05/03 A3004 RMK AO2 T00450026
Loading
Personal Weather Stations






























Interactive Weather Map
Tropical Storm Tracking
New forecast layout! Learn more

10-Day Weather Forecast

Advertisements
Track Severe Weather on mobile